Time;durP1;ratioP1;P1;durP2;ratioP2;P2;SDS_P1;SDS_P2;PMS_P1;PMS_P2;Temp;Humidity;BMP_temperature;BMP_pressure;BME280_temperature;BME280_humidity;BME280_pressure;Samples;Min_cycle;Max_cycle;Signal;HPM_P1;HPM_P2
2022/03/24 00:01:24;;;;;;;;;45.00;37.50;;;;;13.38;36.26;102544.50;5056176;28;45351;-58
2022/03/24 00:03:49;;;;;;;;;55.75;42.00;;;;;13.37;36.13;102553.34;5041462;28;45325;-58
2022/03/24 00:06:15;;;;;;;;;28.50;18.00;;;;;13.36;36.75;102542.84;5055845;28;45448;-58
2022/03/24 00:08:40;;;;;;;;;56.25;43.00;;;;;13.33;36.91;102548.25;5064240;28;45293;-58
2022/03/24 00:11:06;;;;;;;;;58.00;44.50;;;;;13.28;36.66;102547.59;5056351;28;45460;-58
2022/03/24 00:13:31;;;;;;;;;59.25;45.25;;;;;13.24;36.79;102540.69;5056254;28;45358;-58
2022/03/24 00:15:58;;;;;;;;;55.00;42.50;;;;;13.24;36.90;102546.84;5042641;28;45963;-58
2022/03/24 00:18:24;;;;;;;;;52.50;44.00;;;;;13.23;37.04;102542.47;5042548;28;45343;-58
2022/03/24 00:20:49;;;;;;;;;56.00;46.25;;;;;13.20;37.19;102545.25;5042363;28;45317;-58
2022/03/24 00:23:15;;;;;;;;;59.00;45.75;;;;;13.18;37.35;102547.06;5042454;28;45700;-58
2022/03/24 00:25:41;;;;;;;;;59.00;45.75;;;;;13.13;37.44;102544.63;5042517;28;45475;-58
2022/03/24 00:28:07;;;;;;;;;58.50;41.25;;;;;13.10;37.73;102539.44;5042956;28;45245;-58
2022/03/24 00:30:32;;;;;;;;;58.00;42.75;;;;;13.06;38.03;102532.56;5042281;28;45388;-58
2022/03/24 00:32:58;;;;;;;;;56.75;44.25;;;;;13.02;38.71;102528.31;5024951;28;45292;-58
2022/03/24 00:35:24;;;;;;;;;64.50;46.75;;;;;12.97;38.30;102532.94;5042731;28;46125;-59
2022/03/24 00:37:50;;;;;;;;;58.75;45.25;;;;;12.95;37.81;102529.47;5050492;28;45364;-58
2022/03/24 00:40:17;;;;;;;;;58.00;46.25;;;;;12.94;38.29;102526.91;5061262;28;45307;-58
2022/03/24 00:42:43;;;;;;;;;60.75;44.75;;;;;12.91;37.70;102525.25;5042662;28;45416;-58
2022/03/24 00:45:12;;;;;;;;;56.75;42.00;;;;;12.90;38.91;102528.81;5042240;28;45729;-59
2022/03/24 00:47:43;;;;;;;;;59.50;45.00;;;;;12.85;39.53;102534.28;5041363;28;45359;-58
2022/03/24 00:50:10;;;;;;;;;48.50;33.75;;;;;12.81;38.56;102527.41;5042643;28;45459;-58
2022/03/24 00:52:41;;;;;;;;;59.25;45.25;;;;;12.80;38.48;102527.47;5042497;28;45537;-58
2022/03/24 00:55:12;;;;;;;;;56.50;45.00;;;;;12.78;39.11;102526.66;5042203;28;45470;-58
2022/03/24 00:57:40;;;;;;;;;50.50;42.25;;;;;12.76;38.70;102525.88;5042324;28;45360;-58
2022/03/24 01:00:06;;;;;;;;;51.75;37.50;;;;;12.74;38.21;102525.94;5048894;28;45635;-58
2022/03/24 01:02:35;;;;;;;;;50.75;40.50;;;;;12.74;38.14;102522.44;5060593;28;45546;-58
2022/03/24 01:05:02;;;;;;;;;56.25;40.75;;;;;12.73;38.48;102526.84;5060326;28;46445;-58
2022/03/24 01:07:28;;;;;;;;;52.25;41.25;;;;;12.72;38.33;102524.28;5060291;28;45427;-58
2022/03/24 01:09:54;;;;;;;;;51.50;39.50;;;;;12.70;38.12;102521.66;5060752;28;45571;-58
2022/03/24 01:12:19;;;;;;;;;43.00;38.25;;;;;12.69;38.37;102516.44;5059012;28;45360;-58
2022/03/24 01:14:45;;;;;;;;;53.00;40.50;;;;;12.67;38.59;102513.88;5040394;28;46015;-58
2022/03/24 01:17:14;;;;;;;;;50.00;38.00;;;;;12.65;38.57;102513.06;5040762;28;45615;-58
2022/03/24 01:19:40;;;;;;;;;51.00;37.50;;;;;12.62;38.25;102518.47;5041052;28;45641;-58
2022/03/24 01:22:06;;;;;;;;;48.00;38.75;;;;;12.60;38.23;102514.16;5041669;28;45455;-58
2022/03/24 01:24:31;;;;;;;;;53.00;38.25;;;;;12.58;38.23;102506.31;5041869;28;45991;-58
2022/03/24 01:26:57;;;;;;;;;51.00;39.25;;;;;12.56;38.49;102514.31;5041652;28;45501;-58
2022/03/24 01:29:23;;;;;;;;;49.75;39.25;;;;;12.55;38.44;102512.56;5041526;28;45421;-58
2022/03/24 01:31:49;;;;;;;;;50.75;39.75;;;;;12.53;38.56;102511.75;5041576;28;45526;-58
2022/03/24 01:34:17;;;;;;;;;44.75;36.50;;;;;12.49;38.62;102512.81;5041687;28;45313;-58
2022/03/24 01:36:43;;;;;;;;;54.00;39.25;;;;;12.48;38.66;102505.81;5041257;28;45420;-58
2022/03/24 01:39:08;;;;;;;;;46.00;39.25;;;;;12.47;39.02;102508.50;5032847;28;45447;-58
2022/03/24 01:41:34;;;;;;;;;50.75;40.00;;;;;12.45;38.82;102505.06;5046135;28;45478;-58
2022/03/24 01:44:00;;;;;;;;;55.25;40.00;;;;;12.43;38.76;102501.63;5041501;28;46438;-58
2022/03/24 01:46:25;;;;;;;;;46.25;39.00;;;;;12.43;38.78;102496.34;5041533;28;45463;-58
2022/03/24 01:48:51;;;;;;;;;54.50;41.50;;;;;12.43;38.74;102498.97;5041958;28;45342;-58
2022/03/24 01:51:17;;;;;;;;;55.50;43.00;;;;;12.40;38.79;102496.44;5041131;28;45474;-58
2022/03/24 01:53:42;;;;;;;;;49.50;40.25;;;;;12.36;38.98;102492.19;5041527;28;45379;-58
2022/03/24 01:56:08;;;;;;;;;51.75;39.50;;;;;12.33;39.01;102490.53;5041345;28;45277;-58
2022/03/24 01:58:37;;;;;;;;;49.25;37.75;;;;;12.30;39.22;102493.28;5041350;28;45389;-57
2022/03/24 02:01:29;;;;;;;;;55.75;40.00;;;;;12.27;39.18;102491.63;5054798;28;45645;-58
2022/03/24 02:03:56;;;;;;;;;51.75;38.50;;;;;12.25;39.31;102492.63;5059591;28;45860;-57
2022/03/24 02:06:22;;;;;;;;;50.75;38.25;;;;;12.21;39.34;102480.44;5059293;28;45496;-58
2022/03/24 02:08:47;;;;;;;;;49.00;40.75;;;;;12.17;39.33;102486.78;5060143;28;45702;-60
2022/03/24 02:11:13;;;;;;;;;47.00;40.00;;;;;12.14;39.46;102479.81;5061416;28;45593;-58
2022/03/24 02:13:38;;;;;;;;;50.00;38.75;;;;;12.11;39.32;102485.22;5048424;28;46599;-57
2022/03/24 02:16:11;;;;;;;;;55.50;41.50;;;;;12.08;39.35;102480.03;5040686;28;45438;-58
2022/03/24 02:18:36;;;;;;;;;55.00;41.50;;;;;12.07;39.60;102485.38;5041037;28;45532;-58
2022/03/24 02:21:02;;;;;;;;;52.25;37.50;;;;;12.05;40.21;102489.88;5046886;28;45446;-58
2022/03/24 02:23:27;;;;;;;;;54.00;40.25;;;;;12.01;39.62;102486.50;5060865;28;46153;-58
2022/03/24 02:25:55;;;;;;;;;46.00;37.00;;;;;11.97;40.07;102485.72;5061272;28;45346;-57
2022/03/24 02:28:23;;;;;;;;;47.50;39.75;;;;;11.96;39.81;102481.38;5061296;28;45452;-57
2022/03/24 02:30:51;;;;;;;;;57.00;43.00;;;;;11.95;40.25;102479.66;5060818;28;45359;-58
2022/03/24 02:33:21;;;;;;;;;53.00;39.75;;;;;11.93;39.95;102484.13;5060459;28;46495;-57
2022/03/24 02:35:48;;;;;;;;;55.25;40.50;;;;;11.90;39.54;102484.22;5060627;28;45375;-58
2022/03/24 02:38:13;;;;;;;;;53.50;37.25;;;;;11.89;40.03;102484.28;5045382;28;45347;-58
2022/03/24 02:40:39;;;;;;;;;56.75;43.50;;;;;11.87;39.69;102486.13;5049036;28;45642;-58
2022/03/24 02:43:05;;;;;;;;;11.00;2.00;;;;;11.84;39.72;102483.59;5040341;28;46231;-57
2022/03/24 02:45:30;;;;;;;;;51.00;40.50;;;;;11.80;39.95;102482.84;5040338;28;45379;-58
2022/03/24 02:47:56;;;;;;;;;51.75;38.25;;;;;11.79;39.75;102483.75;5040342;28;45455;-58
2022/03/24 02:50:22;;;;;;;;;49.25;39.50;;;;;11.79;39.72;102485.50;5040559;28;45417;-58
2022/03/24 02:52:48;;;;;;;;;37.25;26.75;;;;;11.80;40.04;102481.97;5040225;28;46217;-58
2022/03/24 02:55:13;;;;;;;;;54.00;40.25;;;;;11.80;39.91;102482.84;5040534;28;45323;-58
2022/03/24 02:57:39;;;;;;;;;52.25;39.75;;;;;11.80;39.86;102485.50;5040091;28;45393;-58
2022/03/24 03:00:07;;;;;;;;;54.25;38.75;;;;;11.80;39.82;102487.25;5046854;28;45649;-58
2022/03/24 03:02:32;;;;;;;;;46.25;37.00;;;;;11.79;39.73;102483.75;5040691;28;45455;-58
2022/03/24 03:04:58;;;;;;;;;56.75;40.25;;;;;11.79;40.18;102481.09;5058605;28;45661;-58
2022/03/24 03:07:23;;;;;;;;;50.25;39.25;;;;;11.74;39.79;102481.25;5058629;28;45472;-58
2022/03/24 03:09:50;;;;;;;;;40.25;32.25;;;;;11.74;40.18;102480.38;5059718;28;45592;-57
2022/03/24 03:12:18;;;;;;;;;54.25;42.75;;;;;11.70;40.80;102482.28;5058574;28;45451;-58
2022/03/24 03:14:46;;;;;;;;;47.75;38.00;;;;;11.69;40.33;102482.31;5039911;28;45557;-58
2022/03/24 03:17:15;;;;;;;;;54.00;40.25;;;;;11.68;40.64;102478.81;5039971;28;45390;-58
2022/03/24 03:19:42;;;;;;;;;49.25;39.25;;;;;11.63;41.43;102478.16;5039449;28;45533;-57
2022/03/24 03:22:08;;;;;;;;;48.75;38.25;;;;;11.61;40.09;102480.00;5039429;28;45442;-58
2022/03/24 03:24:33;;;;;;;;;50.75;39.00;;;;;11.59;41.53;102479.16;5039593;28;45452;-58
2022/03/24 03:26:59;;;;;;;;;49.25;39.25;;;;;11.54;41.29;102481.13;5039783;28;45667;-58
2022/03/24 03:29:25;;;;;;;;;43.75;35.75;;;;;11.52;41.15;102490.00;5039872;28;45379;-58
2022/03/24 03:31:54;;;;;;;;;47.75;39.50;;;;;11.49;41.95;102492.75;5039383;28;45504;-58
2022/03/24 03:34:21;;;;;;;;;53.00;40.00;;;;;11.45;41.63;102486.69;5039645;28;45321;-59
2022/03/24 03:36:47;;;;;;;;;55.75;40.75;;;;;11.42;42.14;102489.44;5039483;28;45539;-58
2022/03/24 03:39:13;;;;;;;;;48.00;39.25;;;;;11.40;42.20;102483.38;5044301;28;45530;-58
2022/03/24 03:41:42;;;;;;;;;59.25;42.75;;;;;11.39;42.03;102479.00;5044454;28;45458;-58
2022/03/24 03:44:07;;;;;;;;;46.50;37.00;;;;;11.37;42.19;102494.00;5039519;28;45395;-58
2022/03/24 03:46:34;;;;;;;;;47.50;40.25;;;;;11.34;41.99;102480.94;5038662;28;45412;-58
2022/03/24 03:49:00;;;;;;;;;54.00;39.50;;;;;11.29;41.97;102488.13;5038174;28;45387;-58
2022/03/24 03:51:27;;;;;;;;;57.50;42.50;;;;;11.26;42.06;102482.97;5038472;28;45651;-58
2022/03/24 03:53:53;;;;;;;;;51.00;39.00;;;;;11.24;42.05;102487.47;5039268;28;45448;-58
2022/03/24 03:56:19;;;;;;;;;48.50;38.25;;;;;11.24;42.30;102476.91;5039480;28;45703;-58
2022/03/24 03:58:44;;;;;;;;;49.75;37.00;;;;;11.21;42.84;102479.63;5039293;28;45300;-58
2022/03/24 04:01:10;;;;;;;;;51.50;38.00;;;;;11.18;41.86;102483.25;5054332;28;45376;-60
2022/03/24 04:03:39;;;;;;;;;39.00;36.00;;;;;11.16;41.83;102479.81;5058036;28;45714;-58
2022/03/24 04:06:10;;;;;;;;;52.00;38.50;;;;;11.16;41.25;102488.56;5057596;28;45334;-58
2022/03/24 04:08:38;;;;;;;;;54.00;35.50;;;;;11.17;41.87;102484.16;5058490;28;45681;-58
2022/03/24 04:11:07;;;;;;;;;39.50;36.75;;;;;11.16;41.55;102485.09;5059245;28;45381;-58
2022/03/24 04:13:33;;;;;;;;;54.75;39.50;;;;;11.15;41.82;102484.22;5047149;28;45502;-58
2022/03/24 04:15:58;;;;;;;;;52.00;38.50;;;;;11.15;42.01;102488.63;5039089;28;45436;-58
2022/03/24 04:18:24;;;;;;;;;49.75;37.00;;;;;11.12;41.84;102481.66;5038767;28;45440;-58
2022/03/24 04:20:49;;;;;;;;;47.00;36.75;;;;;11.11;42.01;102487.00;5037991;28;45419;-58
2022/03/24 04:23:15;;;;;;;;;49.25;37.00;;;;;11.08;41.70;102476.56;5040891;28;45530;-58
2022/03/24 04:25:41;;;;;;;;;44.50;36.75;;;;;11.08;41.93;102480.06;5042584;28;45438;-58
2022/03/24 04:28:07;;;;;;;;;49.00;38.25;;;;;11.08;42.04;102484.47;5042652;28;45580;-58
2022/03/24 04:30:34;;;;;;;;;47.50;39.00;;;;;11.05;41.80;102481.91;5042393;28;45470;-58
2022/03/24 04:33:00;;;;;;;;;39.50;36.25;;;;;11.04;41.78;102488.97;5042643;28;45288;-58
2022/03/24 04:35:27;;;;;;;;;55.00;41.00;;;;;11.03;42.18;102484.63;5042202;28;45478;-58
2022/03/24 04:37:53;;;;;;;;;53.50;41.00;;;;;11.04;42.10;102481.06;5042003;28;45442;-58
2022/03/24 04:40:19;;;;;;;;;49.75;38.50;;;;;11.05;42.20;102481.91;5049827;28;45489;-58
2022/03/24 04:42:48;;;;;;;;;53.50;41.00;;;;;11.03;42.08;102478.47;5042145;28;45329;-58
2022/03/24 04:45:14;;;;;;;;;54.25;42.25;;;;;11.01;42.07;102478.53;5042298;28;45384;-58
2022/03/24 04:47:41;;;;;;;;;48.00;35.25;;;;;11.00;42.06;102481.22;5042220;28;45392;-58
2022/03/24 04:50:07;;;;;;;;;50.50;38.75;;;;;10.99;42.76;102482.16;5048889;28;45319;-58
2022/03/24 04:52:33;;;;;;;;;51.75;38.50;;;;;10.97;41.86;102487.44;5062041;28;45424;-58
2022/03/24 04:55:01;;;;;;;;;50.25;36.00;;;;;10.98;42.14;102488.31;5062157;28;45376;-58
2022/03/24 04:57:27;;;;;;;;;47.25;37.25;;;;;10.96;42.08;102476.97;5062155;28;45586;-58
2022/03/24 04:59:54;;;;;;;;;53.75;41.25;;;;;10.95;41.83;102483.16;5061246;28;46249;-58
2022/03/24 05:02:19;;;;;;;;;50.50;35.25;;;;;10.96;41.99;102479.59;5060525;28;45501;-58
2022/03/24 05:04:45;;;;;;;;;51.25;40.50;;;;;10.95;42.04;102475.22;5060645;28;45722;-58
2022/03/24 05:07:11;;;;;;;;;53.25;38.25;;;;;10.93;42.01;102474.44;5060500;28;45801;-58
2022/03/24 05:09:37;;;;;;;;;59.00;42.25;;;;;10.92;42.12;102473.56;5061082;28;45292;-58
2022/03/24 05:12:03;;;;;;;;;46.25;38.50;;;;;10.89;41.90;102478.94;5061267;28;45458;-58
2022/03/24 05:14:30;;;;;;;;;48.00;38.00;;;;;10.88;42.28;102480.69;5042997;28;45261;-58
2022/03/24 05:16:56;;;;;;;;;54.00;38.75;;;;;10.89;42.19;102481.56;5041915;28;45518;-58
2022/03/24 05:19:21;;;;;;;;;41.50;35.75;;;;;10.88;42.54;102485.97;5040722;28;45486;-57
2022/03/24 05:21:47;;;;;;;;;50.00;41.50;;;;;10.86;42.65;102484.31;5041917;28;45423;-58
2022/03/24 05:24:12;;;;;;;;;52.75;40.50;;;;;10.83;42.59;102485.28;5042022;28;45376;-58
2022/03/24 05:26:39;;;;;;;;;45.50;39.00;;;;;10.81;42.82;102480.94;5041948;28;45517;-57
2022/03/24 05:29:05;;;;;;;;;52.50;39.00;;;;;10.81;42.37;102479.19;5041360;28;45546;-58
2022/03/24 05:31:30;;;;;;;;;50.75;38.25;;;;;10.82;42.51;102485.31;5041673;28;45380;-58
2022/03/24 05:33:56;;;;;;;;;53.25;40.75;;;;;10.80;42.64;102490.63;5040659;28;45562;-57
2022/03/24 05:36:22;;;;;;;;;50.50;38.00;;;;;10.78;42.94;102488.97;5041622;28;45541;-58
2022/03/24 05:38:47;;;;;;;;;54.00;39.00;;;;;10.77;42.61;102484.63;5041912;28;46418;-58
2022/03/24 05:41:13;;;;;;;;;52.50;38.75;;;;;10.75;42.95;102491.72;5049675;28;45439;-58
2022/03/24 05:43:40;;;;;;;;;57.75;41.50;;;;;10.73;42.65;102488.25;5041605;28;45358;-58
2022/03/24 05:46:06;;;;;;;;;51.25;36.00;;;;;10.71;43.26;102485.66;5041699;28;45429;-58
2022/03/24 05:48:33;;;;;;;;;54.00;40.25;;;;;10.71;43.18;102480.38;5041232;28;45324;-57
2022/03/24 05:51:00;;;;;;;;;55.00;42.25;;;;;10.70;42.91;102483.09;5041055;28;45563;-57
2022/03/24 05:53:25;;;;;;;;;53.25;41.75;;;;;10.70;43.33;102491.00;5041435;28;45492;-57
2022/03/24 05:55:52;;;;;;;;;56.75;41.75;;;;;10.67;43.14;102489.31;5041784;28;45481;-57
2022/03/24 05:58:17;;;;;;;;;55.50;41.50;;;;;10.69;43.14;102490.13;5041229;28;46076;-57
2022/03/24 06:00:43;;;;;;;;;48.25;38.50;;;;;10.70;43.61;102494.47;5054397;28;45439;-57
2022/03/24 06:03:09;;;;;;;;;53.00;39.50;;;;;10.70;43.62;102493.63;5060051;28;45477;-57
2022/03/24 06:05:40;;;;;;;;;50.75;39.75;;;;;10.70;43.18;102491.84;5059296;28;45478;-57
2022/03/24 06:08:07;;;;;;;;;53.75;42.00;;;;;10.70;43.77;102497.13;5034672;28;45803;-56
2022/03/24 06:10:33;;;;;;;;;58.75;41.50;;;;;10.72;43.34;102500.56;5039428;28;45542;-57
2022/03/24 06:12:58;;;;;;;;;54.50;41.00;;;;;10.74;43.97;102500.50;5045422;28;45382;-57
2022/03/24 06:15:24;;;;;;;;;56.75;40.75;;;;;10.74;43.73;102500.50;5041151;28;45451;-57
2022/03/24 06:17:50;;;;;;;;;53.25;40.75;;;;;10.75;43.89;102499.63;5040687;28;46209;-57
2022/03/24 06:20:16;;;;;;;;;57.25;41.00;;;;;10.76;43.83;102501.34;5040328;28;45388;-56
2022/03/24 06:22:53;;;;;;;;;37.50;32.25;;;;;10.84;43.62;102501.97;5041241;28;45316;-57
2022/03/24 06:25:19;;;;;;;;;54.25;40.00;;;;;10.95;43.20;102502.47;5041209;28;45156;-57
2022/03/24 06:27:49;;;;;;;;;48.75;37.50;;;;;11.04;43.44;102499.53;5041356;28;46150;-57
2022/03/24 06:30:16;;;;;;;;;43.50;36.00;;;;;11.13;43.38;102498.34;5041759;28;45412;-57
2022/03/24 06:32:42;;;;;;;;;55.75;40.75;;;;;11.22;43.44;102505.09;5053996;28;45643;-57
2022/03/24 06:35:08;;;;;;;;;55.50;40.25;;;;;11.36;42.73;102502.84;5060899;28;45371;-56
2022/03/24 06:37:40;;;;;;;;;51.50;42.50;;;;;11.50;42.92;102503.25;5050946;28;45423;-56
2022/03/24 06:40:10;;;;;;;;;52.50;42.00;;;;;11.64;42.76;102503.63;5049435;28;45408;-57
2022/03/24 06:42:36;;;;;;;;;60.25;45.25;;;;;11.74;42.43;102501.50;5041180;28;45358;-56
2022/03/24 06:45:04;;;;;;;;;50.25;40.25;;;;;11.84;42.51;102502.06;5040875;28;45408;-59
2022/03/24 06:47:30;;;;;;;;;51.25;38.50;;;;;11.94;42.55;102506.13;5050025;28;45440;-57
2022/03/24 06:49:55;;;;;;;;;57.00;42.50;;;;;12.00;42.07;102509.38;5060352;28;45457;-56
2022/03/24 06:52:21;;;;;;;;;57.50;40.75;;;;;12.08;41.84;102506.44;5060375;28;45507;-57
2022/03/24 06:54:46;;;;;;;;;42.50;34.75;;;;;12.18;42.04;102504.34;5060843;28;45370;-57
2022/03/24 06:57:14;;;;;;;;;44.50;35.00;;;;;12.23;41.57;102503.22;5059742;28;45965;-57
2022/03/24 06:59:43;;;;;;;;;48.00;39.75;;;;;12.23;41.33;102507.66;5059521;28;45403;-57
2022/03/24 07:02:09;;;;;;;;;48.25;38.00;;;;;12.23;41.61;102505.00;5060914;28;45525;-58
2022/03/24 07:04:36;;;;;;;;;53.50;41.00;;;;;12.23;41.53;102516.44;5060955;28;45456;-58
2022/03/24 07:07:03;;;;;;;;;54.25;40.00;;;;;12.23;41.32;102518.22;5060479;28;45408;-58
2022/03/24 07:09:29;;;;;;;;;55.50;43.75;;;;;12.24;41.33;102518.19;5060472;28;45229;-58
2022/03/24 07:11:55;;;;;;;;;50.75;39.50;;;;;12.28;41.28;102519.78;5060667;28;45388;-57
2022/03/24 07:14:21;;;;;;;;;50.25;37.50;;;;;12.33;41.70;102518.75;5042387;28;45519;-58
2022/03/24 07:16:47;;;;;;;;;53.25;38.75;;;;;12.36;41.32;102529.19;5040459;28;46099;-58
2022/03/24 07:19:12;;;;;;;;;55.75;40.50;;;;;12.37;41.71;102529.13;5040273;28;45342;-58
2022/03/24 07:21:38;;;;;;;;;53.00;41.00;;;;;12.37;41.75;102523.00;5040035;28;45325;-58
2022/03/24 07:24:04;;;;;;;;;55.25;44.50;;;;;12.39;41.38;102522.00;5039432;28;45399;-58
2022/03/24 07:26:30;;;;;;;;;48.75;39.75;;;;;12.41;41.44;102527.25;5040000;28;45429;-58
2022/03/24 07:28:56;;;;;;;;;44.50;37.00;;;;;12.40;41.43;102529.03;5040062;28;45413;-57
2022/03/24 07:31:23;;;;;;;;;51.25;39.50;;;;;12.42;41.27;102523.69;5039933;28;45451;-58
2022/03/24 07:33:50;;;;;;;;;44.25;37.50;;;;;12.45;41.19;102526.19;5039859;28;45221;-57
2022/03/24 07:36:20;;;;;;;;;51.25;38.25;;;;;12.46;41.34;102528.78;5039645;28;46481;-58
2022/03/24 07:38:46;;;;;;;;;59.00;43.75;;;;;12.48;41.40;102531.34;5040669;28;45383;-57
2022/03/24 07:41:11;;;;;;;;;51.25;40.50;;;;;12.48;41.19;102529.59;5048642;28;45329;-57
2022/03/24 07:43:37;;;;;;;;;49.75;38.25;;;;;12.50;41.15;102534.81;5037386;28;45527;-57
2022/03/24 07:46:02;;;;;;;;;50.75;36.00;;;;;12.52;41.39;102531.19;5051731;28;46131;-57
2022/03/24 07:48:28;;;;;;;;;45.50;38.50;;;;;12.58;41.15;102536.25;5060068;28;45462;-57
2022/03/24 07:50:56;;;;;;;;;50.00;39.50;;;;;12.61;41.50;102535.25;5060068;28;45399;-57
2022/03/24 07:53:27;;;;;;;;;55.25;41.00;;;;;12.67;41.33;102539.44;5060308;28;45503;-57
2022/03/24 07:55:55;;;;;;;;;54.25;43.25;;;;;12.71;41.32;102544.53;5060195;28;45327;-58
2022/03/24 07:58:21;;;;;;;;;57.00;40.00;;;;;12.78;41.43;102542.53;5062470;28;45261;-58
2022/03/24 08:00:48;;;;;;;;;65.00;47.25;;;;;12.83;41.24;102543.22;5063554;28;45379;-58
2022/03/24 08:03:16;;;;;;;;;54.75;42.75;;;;;12.89;41.02;102544.75;5063949;28;45315;-58
2022/03/24 08:05:42;;;;;;;;;54.50;42.00;;;;;12.93;40.90;102541.91;5061855;28;45621;-57
2022/03/24 08:08:11;;;;;;;;;56.75;43.50;;;;;13.01;41.23;102537.16;5063306;28;45249;-58
2022/03/24 08:10:38;;;;;;;;;64.25;43.50;;;;;13.08;41.05;102541.28;5063405;28;45393;-58
2022/03/24 08:13:04;;;;;;;;;53.25;41.00;;;;;13.13;41.15;102543.75;5055274;28;45360;-58
2022/03/24 08:15:31;;;;;;;;;39.75;33.50;;;;;13.23;41.09;102544.25;5043113;28;46112;-57
2022/03/24 08:17:56;;;;;;;;;61.75;45.00;;;;;13.26;40.99;102539.69;5043405;28;45397;-57
2022/03/24 08:20:23;;;;;;;;;57.25;38.00;;;;;13.37;40.91;102547.22;5024583;28;45350;-58
2022/03/24 08:22:48;;;;;;;;;55.25;44.50;;;;;13.43;40.95;102539.00;5043220;28;45538;-58
2022/03/24 08:25:14;;;;;;;;;50.50;36.75;;;;;13.53;40.69;102548.28;5042939;28;45432;-57
2022/03/24 08:27:39;;;;;;;;;51.50;38.00;;;;;13.62;40.85;102544.38;5043249;28;45229;-57
2022/03/24 08:30:06;;;;;;;;;53.25;40.25;;;;;13.70;40.48;102544.91;5043239;28;45297;-57
2022/03/24 08:32:32;;;;;;;;;55.25;39.25;;;;;13.78;40.15;102547.22;5043251;28;45332;-57
2022/03/24 08:34:57;;;;;;;;;56.50;41.25;;;;;13.86;40.46;102542.44;5043097;28;45480;-57
2022/03/24 08:37:23;;;;;;;;;54.75;41.75;;;;;13.94;40.20;102542.94;5042843;28;45253;-58
2022/03/24 08:39:48;;;;;;;;;54.00;40.50;;;;;14.02;39.86;102546.13;5050954;28;45238;-56
2022/03/24 08:42:14;;;;;;;;;51.75;39.25;;;;;14.06;39.66;102545.06;5042321;28;45803;-58
2022/03/24 08:44:40;;;;;;;;;44.75;37.00;;;;;14.12;39.71;102551.84;5042267;28;45419;-57
2022/03/24 08:47:06;;;;;;;;;53.00;36.75;;;;;14.21;40.25;102554.94;5042268;28;45246;-58
2022/03/24 08:49:32;;;;;;;;;48.00;34.50;;;;;14.32;39.89;102545.66;5041888;28;45266;-58
2022/03/24 08:51:58;;;;;;;;;45.25;37.25;;;;;14.40;39.31;102554.13;5042343;28;45313;-58
2022/03/24 08:54:24;;;;;;;;;50.50;37.50;;;;;14.47;39.27;102558.25;5042017;28;45432;-60
2022/03/24 08:56:50;;;;;;;;;49.00;38.50;;;;;14.52;39.32;102553.56;5042247;28;45292;-57
2022/03/24 08:59:16;;;;;;;;;46.50;37.00;;;;;14.59;39.14;102555.00;5042930;28;45233;-57
2022/03/24 09:01:43;;;;;;;;;48.75;37.25;;;;;14.67;38.86;102555.50;5062457;28;45558;-57
2022/03/24 09:04:08;;;;;;;;;51.25;37.50;;;;;14.73;38.67;102551.69;5062026;28;45327;-58
2022/03/24 09:06:34;;;;;;;;;51.25;39.00;;;;;14.82;39.14;102555.72;5062154;28;45410;-57
2022/03/24 09:08:59;;;;;;;;;41.75;36.75;;;;;14.93;38.81;102559.56;5061235;28;45209;-57
2022/03/24 09:11:25;;;;;;;;;53.25;39.25;;;;;14.95;38.47;102557.69;5061958;28;45339;-58
2022/03/24 09:13:51;;;;;;;;;51.75;38.50;;;;;15.03;38.11;102559.97;5047896;28;45316;-58
2022/03/24 09:16:17;;;;;;;;;50.75;38.75;;;;;15.06;37.99;102554.50;5042519;28;45339;-57
2022/03/24 09:18:42;;;;;;;;;45.50;37.00;;;;;15.14;38.06;102559.44;5042353;28;45202;-57
2022/03/24 09:21:09;;;;;;;;;47.50;36.00;;;;;15.19;38.05;102560.94;5042216;28;45325;-57
2022/03/24 09:23:35;;;;;;;;;49.25;36.00;;;;;15.25;37.59;102558.00;5042013;28;46172;-57
2022/03/24 09:26:01;;;;;;;;;50.00;36.25;;;;;15.34;38.00;102561.97;5042361;28;45326;-58
2022/03/24 09:28:27;;;;;;;;;47.25;37.00;;;;;15.42;37.28;102559.81;5042521;28;45487;-57
2022/03/24 09:30:56;;;;;;;;;50.50;39.00;;;;;15.51;37.23;102555.81;5042078;28;45321;-58
2022/03/24 09:33:22;;;;;;;;;45.25;35.00;;;;;15.60;37.16;102563.31;5042030;28;46041;-58
2022/03/24 09:35:48;;;;;;;;;51.50;38.00;;;;;15.66;37.20;102559.53;5041842;28;45398;-57
2022/03/24 09:38:14;;;;;;;;;50.25;37.00;;;;;15.71;37.08;102557.47;5041436;28;45266;-58
2022/03/24 09:40:41;;;;;;;;;45.50;37.50;;;;;15.80;36.99;102554.31;5050866;28;45535;-58
2022/03/24 09:43:07;;;;;;;;;52.25;39.00;;;;;15.88;36.84;102547.69;5041837;28;46373;-58
2022/03/24 09:45:34;;;;;;;;;49.25;35.25;;;;;15.97;37.05;102564.09;5042056;28;45366;-58
2022/03/24 09:48:00;;;;;;;;;48.00;35.25;;;;;16.04;36.83;102552.19;5041463;28;45518;-58
2022/03/24 09:50:27;;;;;;;;;56.75;39.00;;;;;16.12;36.59;102550.84;5041830;28;45431;-58
2022/03/24 09:52:53;;;;;;;;;43.00;34.50;;;;;16.18;36.14;102555.81;5041763;28;45401;-57
2022/03/24 09:55:19;;;;;;;;;49.00;37.25;;;;;16.24;36.41;102551.13;5041277;28;45377;-58
2022/03/24 09:57:47;;;;;;;;;44.75;37.75;;;;;16.32;36.34;102544.44;5041640;28;45231;-58
2022/03/24 10:00:13;;;;;;;;;44.00;36.50;;;;;16.40;36.32;102542.22;5050474;28;45514;-57
2022/03/24 10:02:39;;;;;;;;;45.25;35.50;;;;;16.46;35.85;102549.84;5061372;28;46106;-57
2022/03/24 10:05:07;;;;;;;;;47.75;37.00;;;;;16.52;35.98;102547.81;5061563;28;45345;-58
2022/03/24 10:07:45;;;;;;;;;50.50;38.50;;;;;16.51;35.46;102549.63;5061621;28;45399;-58
2022/03/24 10:10:26;;;;;;;;;49.50;38.75;;;;;16.56;35.65;102544.88;5061746;28;45241;-58
2022/03/24 10:12:52;;;;;;;;;27.75;18.75;;;;;16.66;35.39;102547.88;5055343;28;46319;-58
2022/03/24 10:15:18;;;;;;;;;51.00;39.50;;;;;16.72;35.42;102536.94;5041980;28;45397;-58
2022/03/24 10:17:52;;;;;;;;;47.00;36.75;;;;;16.79;35.06;102535.63;5041632;28;45443;-58
2022/03/24 10:20:18;;;;;;;;;49.25;38.50;;;;;16.88;34.92;102547.56;5040885;28;45333;-58
2022/03/24 10:22:57;;;;;;;;;51.50;39.25;;;;;16.96;34.80;102540.00;5041377;28;45294;-58
2022/03/24 10:25:28;;;;;;;;;43.75;36.25;;;;;17.02;34.68;102539.66;5040980;28;45330;-58
2022/03/24 10:28:12;;;;;;;;;57.50;40.50;;;;;17.08;34.81;102533.97;5041490;28;45178;-58
2022/03/24 10:30:48;;;;;;;;;50.25;35.00;;;;;17.14;34.59;102541.63;5041492;28;45186;-58
2022/03/24 10:33:33;;;;;;;;;53.25;39.25;;;;;17.19;34.75;102531.53;5041134;28;46232;-58
2022/03/24 10:36:07;;;;;;;;;54.25;41.25;;;;;17.25;34.67;102533.00;5041062;28;45312;-57
2022/03/24 10:38:34;;;;;;;;;47.50;38.25;;;;;17.30;34.76;102530.91;5041207;28;45229;-58
2022/03/24 10:41:23;;;;;;;;;51.75;36.50;;;;;17.39;34.68;102525.03;5049973;28;45471;-58
2022/03/24 10:43:50;;;;;;;;;50.50;39.00;;;;;17.49;34.64;102526.19;5030387;28;46448;-58
2022/03/24 10:46:18;;;;;;;;;48.00;36.25;;;;;17.57;34.85;102531.94;5060928;28;45353;-58
2022/03/24 10:48:45;;;;;;;;;47.75;37.75;;;;;17.68;34.66;102528.59;5061140;28;45315;-58
2022/03/24 10:51:10;;;;;;;;;52.50;39.50;;;;;17.77;34.60;102529.88;5060791;28;45179;-58
2022/03/24 10:53:41;;;;;;;;;50.25;41.00;;;;;17.85;34.42;102528.50;5061249;28;45495;-58
2022/03/24 10:56:13;;;;;;;;;37.75;31.25;;;;;17.93;34.53;102525.34;5061146;28;45269;-59
2022/03/24 10:58:47;;;;;;;;;48.00;36.25;;;;;17.97;33.67;102524.19;5061285;28;45323;-59
2022/03/24 11:01:16;;;;;;;;;51.00;38.00;;;;;17.97;33.60;102521.53;5060603;28;45281;-59
2022/03/24 11:03:44;;;;;;;;;48.00;37.25;;;;;18.03;33.60;102523.81;5060865;28;45572;-58
2022/03/24 11:06:15;;;;;;;;;52.25;37.50;;;;;18.09;34.12;102518.09;5060633;28;45328;-56
2022/03/24 11:08:43;;;;;;;;;48.75;37.75;;;;;18.17;34.09;102524.75;5061141;28;45394;-58